sensor_id;sensor_type;location;lat;lon;timestamp;temperature;humidity
10986;DHT22;5546;48.714;8.738;2023-07-08T00:00:44;21.40;69.90
10986;DHT22;5546;48.714;8.738;2023-07-08T00:03:14;21.30;69.70
10986;DHT22;5546;48.714;8.738;2023-07-08T00:05:40;21.50;68.60
10986;DHT22;5546;48.714;8.738;2023-07-08T00:08:08;21.50;68.80
10986;DHT22;5546;48.714;8.738;2023-07-08T00:10:36;21.40;68.80
10986;DHT22;5546;48.714;8.738;2023-07-08T00:13:02;21.40;69.10
10986;DHT22;5546;48.714;8.738;2023-07-08T00:15:29;21.30;69.00
10986;DHT22;5546;48.714;8.738;2023-07-08T00:17:56;21.30;69.40
10986;DHT22;5546;48.714;8.738;2023-07-08T00:20:39;21.20;69.70
10986;DHT22;5546;48.714;8.738;2023-07-08T00:25:32;21.20;70.40
10986;DHT22;5546;48.714;8.738;2023-07-08T00:27:58;21.10;70.90
10986;DHT22;5546;48.714;8.738;2023-07-08T00:30:26;21.20;70.80
10986;DHT22;5546;48.714;8.738;2023-07-08T00:32:53;21.20;71.70
10986;DHT22;5546;48.714;8.738;2023-07-08T00:35:33;21.10;71.40
10986;DHT22;5546;48.714;8.738;2023-07-08T00:37:59;21.20;71.00
10986;DHT22;5546;48.714;8.738;2023-07-08T00:40:32;21.10;71.30
10986;DHT22;5546;48.714;8.738;2023-07-08T00:43:03;21.00;72.10
10986;DHT22;5546;48.714;8.738;2023-07-08T00:45:47;21.00;71.80
10986;DHT22;5546;48.714;8.738;2023-07-08T00:48:28;20.80;72.80
10986;DHT22;5546;48.714;8.738;2023-07-08T00:50:54;20.60;73.70
10986;DHT22;5546;48.714;8.738;2023-07-08T00:55:52;20.70;73.90
10986;DHT22;5546;48.714;8.738;2023-07-08T00:58:21;20.60;74.00
10986;DHT22;5546;48.714;8.738;2023-07-08T01:00:49;20.50;74.20
10986;DHT22;5546;48.714;8.738;2023-07-08T01:03:18;20.60;74.50
10986;DHT22;5546;48.714;8.738;2023-07-08T01:05:45;20.60;74.90
10986;DHT22;5546;48.714;8.738;2023-07-08T01:08:11;20.50;74.90
10986;DHT22;5546;48.714;8.738;2023-07-08T01:10:41;20.50;75.30
10986;DHT22;5546;48.714;8.738;2023-07-08T01:13:09;20.60;74.70
10986;DHT22;5546;48.714;8.738;2023-07-08T01:15:40;20.60;74.70
10986;DHT22;5546;48.714;8.738;2023-07-08T01:18:08;20.60;74.50
10986;DHT22;5546;48.714;8.738;2023-07-08T01:20:34;20.50;74.70
10986;DHT22;5546;48.714;8.738;2023-07-08T01:23:00;20.20;75.50
10986;DHT22;5546;48.714;8.738;2023-07-08T01:27:54;20.40;75.00
10986;DHT22;5546;48.714;8.738;2023-07-08T01:32:55;19.90;77.70
10986;DHT22;5546;48.714;8.738;2023-07-08T01:35:22;19.80;77.50
10986;DHT22;5546;48.714;8.738;2023-07-08T01:38:02;19.80;77.60
10986;DHT22;5546;48.714;8.738;2023-07-08T01:42:55;19.70;81.20
10986;DHT22;5546;48.714;8.738;2023-07-08T01:45:22;19.70;81.50
10986;DHT22;5546;48.714;8.738;2023-07-08T01:47:55;19.50;81.50
10986;DHT22;5546;48.714;8.738;2023-07-08T01:52:49;19.70;79.50
10986;DHT22;5546;48.714;8.738;2023-07-08T01:55:19;19.70;81.70
10986;DHT22;5546;48.714;8.738;2023-07-08T02:00:12;19.70;79.30
10986;DHT22;5546;48.714;8.738;2023-07-08T02:05:04;19.40;83.30
10986;DHT22;5546;48.714;8.738;2023-07-08T02:09:55;19.40;84.30
10986;DHT22;5546;48.714;8.738;2023-07-08T02:12:21;19.60;84.00
10986;DHT22;5546;48.714;8.738;2023-07-08T02:14:46;19.60;82.30
10986;DHT22;5546;48.714;8.738;2023-07-08T02:17:12;19.80;80.80
10986;DHT22;5546;48.714;8.738;2023-07-08T02:19:39;19.70;80.90
10986;DHT22;5546;48.714;8.738;2023-07-08T02:22:05;19.80;80.90
10986;DHT22;5546;48.714;8.738;2023-07-08T02:29:22;19.70;81.10
10986;DHT22;5546;48.714;8.738;2023-07-08T02:31:48;19.50;81.40
10986;DHT22;5546;48.714;8.738;2023-07-08T02:36:39;19.50;80.80
10986;DHT22;5546;48.714;8.738;2023-07-08T02:39:05;19.60;81.30
10986;DHT22;5546;48.714;8.738;2023-07-08T02:41:31;19.60;81.20
10986;DHT22;5546;48.714;8.738;2023-07-08T02:48:48;19.40;82.80
10986;DHT22;5546;48.714;8.738;2023-07-08T02:53:39;19.10;84.30
10986;DHT22;5546;48.714;8.738;2023-07-08T02:56:05;19.20;82.90
10986;DHT22;5546;48.714;8.738;2023-07-08T02:58:31;19.40;82.00
10986;DHT22;5546;48.714;8.738;2023-07-08T03:00:57;19.40;81.90
10986;DHT22;5546;48.714;8.738;2023-07-08T03:03:26;19.30;81.20
10986;DHT22;5546;48.714;8.738;2023-07-08T03:06:02;19.30;81.80
10986;DHT22;5546;48.714;8.738;2023-07-08T03:08:28;19.10;82.30
10986;DHT22;5546;48.714;8.738;2023-07-08T03:10:57;19.10;82.10
10986;DHT22;5546;48.714;8.738;2023-07-08T03:13:23;18.80;83.30
10986;DHT22;5546;48.714;8.738;2023-07-08T03:15:49;18.80;83.70
10986;DHT22;5546;48.714;8.738;2023-07-08T03:20:41;18.80;84.60
10986;DHT22;5546;48.714;8.738;2023-07-08T03:28:03;19.10;84.00
10986;DHT22;5546;48.714;8.738;2023-07-08T03:32:57;19.00;84.90
10986;DHT22;5546;48.714;8.738;2023-07-08T03:42:40;19.00;85.90
10986;DHT22;5546;48.714;8.738;2023-07-08T03:45:06;19.00;86.40
10986;DHT22;5546;48.714;8.738;2023-07-08T03:47:32;19.20;84.00
10986;DHT22;5546;48.714;8.738;2023-07-08T03:52:23;18.90;85.60
10986;DHT22;5546;48.714;8.738;2023-07-08T04:02:10;19.20;84.70
10986;DHT22;5546;48.714;8.738;2023-07-08T04:04:35;19.40;83.00
10986;DHT22;5546;48.714;8.738;2023-07-08T04:07:03;19.50;83.80
10986;DHT22;5546;48.714;8.738;2023-07-08T04:11:55;19.20;84.00
10986;DHT22;5546;48.714;8.738;2023-07-08T04:16:54;19.40;83.80
10986;DHT22;5546;48.714;8.738;2023-07-08T04:19:22;19.00;86.20
10986;DHT22;5546;48.714;8.738;2023-07-08T04:21:48;18.80;87.10
10986;DHT22;5546;48.714;8.738;2023-07-08T04:24:15;18.90;87.00
10986;DHT22;5546;48.714;8.738;2023-07-08T04:26:42;18.80;87.40
10986;DHT22;5546;48.714;8.738;2023-07-08T04:29:12;18.80;87.90
10986;DHT22;5546;48.714;8.738;2023-07-08T04:38:57;18.90;86.80
10986;DHT22;5546;48.714;8.738;2023-07-08T04:41:24;18.70;87.20
10986;DHT22;5546;48.714;8.738;2023-07-08T04:43:51;18.70;88.00
10986;DHT22;5546;48.714;8.738;2023-07-08T04:46:34;18.70;87.90
10986;DHT22;5546;48.714;8.738;2023-07-08T04:49:03;18.60;88.20
10986;DHT22;5546;48.714;8.738;2023-07-08T04:53:55;19.80;84.90
10986;DHT22;5546;48.714;8.738;2023-07-08T04:56:21;19.80;83.50
10986;DHT22;5546;48.714;8.738;2023-07-08T05:01:14;20.60;80.40
10986;DHT22;5546;48.714;8.738;2023-07-08T05:03:40;20.90;79.60
10986;DHT22;5546;48.714;8.738;2023-07-08T05:06:05;21.20;78.40
10986;DHT22;5546;48.714;8.738;2023-07-08T05:10:57;21.90;75.90
10986;DHT22;5546;48.714;8.738;2023-07-08T05:13:23;21.90;75.80
10986;DHT22;5546;48.714;8.738;2023-07-08T05:15:48;22.30;74.50
10986;DHT22;5546;48.714;8.738;2023-07-08T05:18:14;22.50;73.60
10986;DHT22;5546;48.714;8.738;2023-07-08T05:20:39;22.80;72.70
10986;DHT22;5546;48.714;8.738;2023-07-08T05:23:05;22.60;71.80
10986;DHT22;5546;48.714;8.738;2023-07-08T05:25:32;22.70;71.60
10986;DHT22;5546;48.714;8.738;2023-07-08T05:27:58;22.80;71.40
10986;DHT22;5546;48.714;8.738;2023-07-08T05:30:23;23.00;71.00
10986;DHT22;5546;48.714;8.738;2023-07-08T05:32:49;22.90;71.50
10986;DHT22;5546;48.714;8.738;2023-07-08T05:35:15;23.20;69.90
10986;DHT22;5546;48.714;8.738;2023-07-08T05:37:40;23.30;70.40
10986;DHT22;5546;48.714;8.738;2023-07-08T05:40:08;23.50;69.30
10986;DHT22;5546;48.714;8.738;2023-07-08T05:42:34;23.70;68.70
10986;DHT22;5546;48.714;8.738;2023-07-08T05:44:59;23.70;69.40
10986;DHT22;5546;48.714;8.738;2023-07-08T05:47:25;23.40;69.80
10986;DHT22;5546;48.714;8.738;2023-07-08T05:49:50;21.90;74.30
10986;DHT22;5546;48.714;8.738;2023-07-08T05:52:16;21.40;77.10
10986;DHT22;5546;48.714;8.738;2023-07-08T05:54:41;21.40;77.60
10986;DHT22;5546;48.714;8.738;2023-07-08T05:57:09;21.60;76.80
10986;DHT22;5546;48.714;8.738;2023-07-08T05:59:36;21.40;77.00
10986;DHT22;5546;48.714;8.738;2023-07-08T06:02:05;21.30;77.20
10986;DHT22;5546;48.714;8.738;2023-07-08T06:06:57;21.40;78.60
10986;DHT22;5546;48.714;8.738;2023-07-08T06:14:14;22.30;74.40
10986;DHT22;5546;48.714;8.738;2023-07-08T06:16:40;23.00;73.80
10986;DHT22;5546;48.714;8.738;2023-07-08T06:19:05;24.00;70.40
10986;DHT22;5546;48.714;8.738;2023-07-08T06:21:31;25.10;67.50
10986;DHT22;5546;48.714;8.738;2023-07-08T06:23:57;25.70;65.30
10986;DHT22;5546;48.714;8.738;2023-07-08T06:26:22;26.50;64.50
10986;DHT22;5546;48.714;8.738;2023-07-08T06:28:49;27.60;62.20
10986;DHT22;5546;48.714;8.738;2023-07-08T06:31:14;27.50;59.80
10986;DHT22;5546;48.714;8.738;2023-07-08T06:33:40;27.70;59.30
10986;DHT22;5546;48.714;8.738;2023-07-08T06:36:05;28.10;57.70
10986;DHT22;5546;48.714;8.738;2023-07-08T06:38:33;27.40;58.50
10986;DHT22;5546;48.714;8.738;2023-07-08T06:40:58;27.50;58.60
10986;DHT22;5546;48.714;8.738;2023-07-08T06:43:24;27.60;58.10
10986;DHT22;5546;48.714;8.738;2023-07-08T06:45:49;27.60;58.20
10986;DHT22;5546;48.714;8.738;2023-07-08T06:48:15;27.30;58.90
10986;DHT22;5546;48.714;8.738;2023-07-08T06:50:46;27.50;59.10
10986;DHT22;5546;48.714;8.738;2023-07-08T06:53:12;27.70;61.00
10986;DHT22;5546;48.714;8.738;2023-07-08T06:55:38;27.60;62.70
10986;DHT22;5546;48.714;8.738;2023-07-08T06:58:04;27.30;64.00
10986;DHT22;5546;48.714;8.738;2023-07-08T07:00:29;27.10;64.10
10986;DHT22;5546;48.714;8.738;2023-07-08T07:02:55;27.60;62.90
10986;DHT22;5546;48.714;8.738;2023-07-08T07:05:20;27.50;64.10
10986;DHT22;5546;48.714;8.738;2023-07-08T07:07:46;27.10;62.80
10986;DHT22;5546;48.714;8.738;2023-07-08T07:10:12;26.50;65.20
10986;DHT22;5546;48.714;8.738;2023-07-08T07:12:37;26.90;64.20
10986;DHT22;5546;48.714;8.738;2023-07-08T07:15:03;26.90;64.30
10986;DHT22;5546;48.714;8.738;2023-07-08T07:17:30;27.00;64.70
10986;DHT22;5546;48.714;8.738;2023-07-08T07:19:55;27.30;64.70
10986;DHT22;5546;48.714;8.738;2023-07-08T07:22:21;27.50;66.10
10986;DHT22;5546;48.714;8.738;2023-07-08T07:24:47;27.70;65.70
10986;DHT22;5546;48.714;8.738;2023-07-08T07:27:13;28.50;63.10
10986;DHT22;5546;48.714;8.738;2023-07-08T07:29:46;29.20;59.60
10986;DHT22;5546;48.714;8.738;2023-07-08T07:32:14;30.00;59.30
10986;DHT22;5546;48.714;8.738;2023-07-08T07:34:40;29.90;58.40
10986;DHT22;5546;48.714;8.738;2023-07-08T07:37:11;29.30;59.60
10986;DHT22;5546;48.714;8.738;2023-07-08T07:39:37;28.80;59.70
10986;DHT22;5546;48.714;8.738;2023-07-08T07:42:03;29.50;59.20
10986;DHT22;5546;48.714;8.738;2023-07-08T07:44:28;30.40;57.60
10986;DHT22;5546;48.714;8.738;2023-07-08T07:46:54;30.40;57.10
10986;DHT22;5546;48.714;8.738;2023-07-08T07:49:20;30.60;57.00
10986;DHT22;5546;48.714;8.738;2023-07-08T07:51:46;30.40;57.10
10986;DHT22;5546;48.714;8.738;2023-07-08T07:54:11;30.00;58.40
10986;DHT22;5546;48.714;8.738;2023-07-08T07:56:37;29.70;60.10
10986;DHT22;5546;48.714;8.738;2023-07-08T07:59:03;29.50;61.60
10986;DHT22;5546;48.714;8.738;2023-07-08T08:01:29;30.10;61.90
10986;DHT22;5546;48.714;8.738;2023-07-08T08:03:54;31.20;59.20
10986;DHT22;5546;48.714;8.738;2023-07-08T08:06:20;32.90;56.50
10986;DHT22;5546;48.714;8.738;2023-07-08T08:08:45;33.90;55.00
10986;DHT22;5546;48.714;8.738;2023-07-08T08:11:12;35.00;51.50
10986;DHT22;5546;48.714;8.738;2023-07-08T08:13:37;33.90;52.50
10986;DHT22;5546;48.714;8.738;2023-07-08T08:16:04;33.90;52.10
10986;DHT22;5546;48.714;8.738;2023-07-08T08:18:29;34.90;50.50
10986;DHT22;5546;48.714;8.738;2023-07-08T08:20:55;36.20;48.40
10986;DHT22;5546;48.714;8.738;2023-07-08T08:23:21;37.00;46.40
10986;DHT22;5546;48.714;8.738;2023-07-08T08:25:46;36.40;46.40
10986;DHT22;5546;48.714;8.738;2023-07-08T08:28:12;37.20;46.00
10986;DHT22;5546;48.714;8.738;2023-07-08T08:30:38;37.20;44.70
10986;DHT22;5546;48.714;8.738;2023-07-08T08:33:03;37.20;44.80
10986;DHT22;5546;48.714;8.738;2023-07-08T08:35:29;37.30;44.40
10986;DHT22;5546;48.714;8.738;2023-07-08T08:37:54;37.50;42.30
10986;DHT22;5546;48.714;8.738;2023-07-08T08:40:20;38.30;40.40
10986;DHT22;5546;48.714;8.738;2023-07-08T08:42:51;38.60;40.20
10986;DHT22;5546;48.714;8.738;2023-07-08T08:45:19;39.00;39.80
10986;DHT22;5546;48.714;8.738;2023-07-08T08:47:49;38.30;40.30
10986;DHT22;5546;48.714;8.738;2023-07-08T08:53:00;39.50;39.50
10986;DHT22;5546;48.714;8.738;2023-07-08T08:55:26;40.50;36.90
10986;DHT22;5546;48.714;8.738;2023-07-08T08:58:09;40.10;36.30
10986;DHT22;5546;48.714;8.738;2023-07-08T09:00:54;40.20;37.30
10986;DHT22;5546;48.714;8.738;2023-07-08T09:03:39;39.20;37.10
10986;DHT22;5546;48.714;8.738;2023-07-08T09:06:13;35.90;41.70
10986;DHT22;5546;48.714;8.738;2023-07-08T09:08:39;34.10;44.50
10986;DHT22;5546;48.714;8.738;2023-07-08T09:11:18;32.90;47.10
10986;DHT22;5546;48.714;8.738;2023-07-08T09:13:46;32.00;48.20
10986;DHT22;5546;48.714;8.738;2023-07-08T09:16:48;31.10;50.40
10986;DHT22;5546;48.714;8.738;2023-07-08T09:19:23;30.40;51.40
10986;DHT22;5546;48.714;8.738;2023-07-08T09:22:17;30.40;52.00
10986;DHT22;5546;48.714;8.738;2023-07-08T09:24:53;32.20;48.60
10986;DHT22;5546;48.714;8.738;2023-07-08T09:27:20;33.70;46.20
10986;DHT22;5546;48.714;8.738;2023-07-08T09:29:47;34.30;44.60
10986;DHT22;5546;48.714;8.738;2023-07-08T09:34:50;33.80;44.40
10986;DHT22;5546;48.714;8.738;2023-07-08T09:37:27;34.80;43.20
10986;DHT22;5546;48.714;8.738;2023-07-08T09:39:56;35.90;41.90
10986;DHT22;5546;48.714;8.738;2023-07-08T09:42:27;37.00;40.90
10986;DHT22;5546;48.714;8.738;2023-07-08T09:45:15;37.20;39.60
10986;DHT22;5546;48.714;8.738;2023-07-08T09:47:43;37.20;39.90
10986;DHT22;5546;48.714;8.738;2023-07-08T09:52:43;39.00;37.60
10986;DHT22;5546;48.714;8.738;2023-07-08T09:55:11;39.70;36.90
10986;DHT22;5546;48.714;8.738;2023-07-08T09:57:38;39.90;36.20
10986;DHT22;5546;48.714;8.738;2023-07-08T10:00:38;39.90;36.20
10986;DHT22;5546;48.714;8.738;2023-07-08T10:05:52;40.50;34.80
10986;DHT22;5546;48.714;8.738;2023-07-08T10:08:22;42.50;32.70
10986;DHT22;5546;48.714;8.738;2023-07-08T10:10:55;43.30;31.10
10986;DHT22;5546;48.714;8.738;2023-07-08T10:18:39;44.70;30.00
10986;DHT22;5546;48.714;8.738;2023-07-08T10:21:34;45.20;29.60
10986;DHT22;5546;48.714;8.738;2023-07-08T10:27:14;45.30;29.30
10986;DHT22;5546;48.714;8.738;2023-07-08T10:35:17;44.50;29.20
10986;DHT22;5546;48.714;8.738;2023-07-08T10:40:39;42.00;31.00
10986;DHT22;5546;48.714;8.738;2023-07-08T10:46:17;38.90;34.90
10986;DHT22;5546;48.714;8.738;2023-07-08T10:51:59;36.40;37.50
10986;DHT22;5546;48.714;8.738;2023-07-08T11:03:20;43.60;31.60
10986;DHT22;5546;48.714;8.738;2023-07-08T11:05:46;44.60;29.20
10986;DHT22;5546;48.714;8.738;2023-07-08T11:08:25;45.40;28.50
10986;DHT22;5546;48.714;8.738;2023-07-08T11:13:52;44.80;28.40
10986;DHT22;5546;48.714;8.738;2023-07-08T11:16:32;44.70;28.40
10986;DHT22;5546;48.714;8.738;2023-07-08T11:19:13;44.80;28.40
10986;DHT22;5546;48.714;8.738;2023-07-08T11:21:46;46.20;27.30
10986;DHT22;5546;48.714;8.738;2023-07-08T11:24:28;45.60;27.50
10986;DHT22;5546;48.714;8.738;2023-07-08T11:27:05;44.90;28.40
10986;DHT22;5546;48.714;8.738;2023-07-08T11:29:40;44.80;28.20
10986;DHT22;5546;48.714;8.738;2023-07-08T11:32:12;44.80;28.00
10986;DHT22;5546;48.714;8.738;2023-07-08T11:34:39;44.20;28.20
10986;DHT22;5546;48.714;8.738;2023-07-08T11:37:06;42.90;29.00
10986;DHT22;5546;48.714;8.738;2023-07-08T11:39:42;42.40;29.40
10986;DHT22;5546;48.714;8.738;2023-07-08T11:44:43;43.20;29.80
10986;DHT22;5546;48.714;8.738;2023-07-08T11:50:02;44.90;28.00
10986;DHT22;5546;48.714;8.738;2023-07-08T11:52:29;45.10;27.90
10986;DHT22;5546;48.714;8.738;2023-07-08T11:55:03;45.50;27.60
10986;DHT22;5546;48.714;8.738;2023-07-08T11:57:42;45.40;27.40
10986;DHT22;5546;48.714;8.738;2023-07-08T12:00:18;43.40;28.50
10986;DHT22;5546;48.714;8.738;2023-07-08T12:02:50;41.40;29.90
10986;DHT22;5546;48.714;8.738;2023-07-08T12:05:16;40.00;32.00
10986;DHT22;5546;48.714;8.738;2023-07-08T12:07:46;39.00;32.90
10986;DHT22;5546;48.714;8.738;2023-07-08T12:10:37;38.80;33.90
10986;DHT22;5546;48.714;8.738;2023-07-08T12:13:11;39.90;32.30
10986;DHT22;5546;48.714;8.738;2023-07-08T12:15:38;41.20;31.10
10986;DHT22;5546;48.714;8.738;2023-07-08T12:18:15;42.30;29.40
10986;DHT22;5546;48.714;8.738;2023-07-08T12:20:47;43.30;29.00
10986;DHT22;5546;48.714;8.738;2023-07-08T12:23:18;42.20;29.40
10986;DHT22;5546;48.714;8.738;2023-07-08T12:25:44;40.80;31.10
10986;DHT22;5546;48.714;8.738;2023-07-08T12:28:16;41.60;32.20
10986;DHT22;5546;48.714;8.738;2023-07-08T12:30:43;42.00;29.90
10986;DHT22;5546;48.714;8.738;2023-07-08T12:33:25;42.30;29.00
10986;DHT22;5546;48.714;8.738;2023-07-08T12:35:52;43.10;29.40
10986;DHT22;5546;48.714;8.738;2023-07-08T12:38:32;44.60;28.90
10986;DHT22;5546;48.714;8.738;2023-07-08T12:41:10;45.10;27.40
10986;DHT22;5546;48.714;8.738;2023-07-08T12:43:55;45.00;27.80
10986;DHT22;5546;48.714;8.738;2023-07-08T12:46:21;43.90;28.40
10986;DHT22;5546;48.714;8.738;2023-07-08T12:48:48;42.50;29.30
10986;DHT22;5546;48.714;8.738;2023-07-08T12:51:21;41.50;30.00
10986;DHT22;5546;48.714;8.738;2023-07-08T12:53:49;42.00;30.00
10986;DHT22;5546;48.714;8.738;2023-07-08T12:56:15;42.90;29.30
10986;DHT22;5546;48.714;8.738;2023-07-08T12:58:44;43.60;28.70
10986;DHT22;5546;48.714;8.738;2023-07-08T13:01:22;45.50;27.90
10986;DHT22;5546;48.714;8.738;2023-07-08T13:03:52;44.10;28.20
10986;DHT22;5546;48.714;8.738;2023-07-08T13:06:21;42.70;29.00
10986;DHT22;5546;48.714;8.738;2023-07-08T13:08:48;43.50;28.50
10986;DHT22;5546;48.714;8.738;2023-07-08T13:11:16;44.30;27.30
10986;DHT22;5546;48.714;8.738;2023-07-08T13:13:57;42.80;28.30
10986;DHT22;5546;48.714;8.738;2023-07-08T13:16:28;41.30;29.60
10986;DHT22;5546;48.714;8.738;2023-07-08T13:18:55;41.00;29.80
10986;DHT22;5546;48.714;8.738;2023-07-08T13:21:21;42.10;29.20
10986;DHT22;5546;48.714;8.738;2023-07-08T13:23:50;40.50;27.40
10986;DHT22;5546;48.714;8.738;2023-07-08T13:26:21;45.10;27.70
10986;DHT22;5546;48.714;8.738;2023-07-08T13:28:47;45.70;26.60
10986;DHT22;5546;48.714;8.738;2023-07-08T13:33:51;44.60;27.20
10986;DHT22;5546;48.714;8.738;2023-07-08T13:36:20;45.60;26.70
10986;DHT22;5546;48.714;8.738;2023-07-08T13:38:47;46.80;26.40
10986;DHT22;5546;48.714;8.738;2023-07-08T13:41:19;47.50;25.70
10986;DHT22;5546;48.714;8.738;2023-07-08T13:43:47;47.10;26.40
10986;DHT22;5546;48.714;8.738;2023-07-08T13:46:44;47.00;26.80
10986;DHT22;5546;48.714;8.738;2023-07-08T13:51:47;46.50;26.80
10986;DHT22;5546;48.714;8.738;2023-07-08T13:54:21;47.20;25.40
10986;DHT22;5546;48.714;8.738;2023-07-08T13:56:48;46.40;25.30
10986;DHT22;5546;48.714;8.738;2023-07-08T13:59:19;46.20;25.40
10986;DHT22;5546;48.714;8.738;2023-07-08T14:01:46;46.10;25.20
10986;DHT22;5546;48.714;8.738;2023-07-08T14:04:18;45.40;25.80
10986;DHT22;5546;48.714;8.738;2023-07-08T14:06:45;45.90;25.80
10986;DHT22;5546;48.714;8.738;2023-07-08T14:09:18;46.40;25.30
10986;DHT22;5546;48.714;8.738;2023-07-08T14:11:45;45.40;25.20
10986;DHT22;5546;48.714;8.738;2023-07-08T14:14:10;44.90;25.90
10986;DHT22;5546;48.714;8.738;2023-07-08T14:16:39;44.70;25.60
10986;DHT22;5546;48.714;8.738;2023-07-08T14:19:07;44.00;26.50
10986;DHT22;5546;48.714;8.738;2023-07-08T14:21:36;43.40;26.60
10986;DHT22;5546;48.714;8.738;2023-07-08T14:24:07;43.10;26.20
10986;DHT22;5546;48.714;8.738;2023-07-08T14:26:33;42.10;26.20
10986;DHT22;5546;48.714;8.738;2023-07-08T14:28:59;43.00;27.60
10986;DHT22;5546;48.714;8.738;2023-07-08T14:31:25;43.40;27.40
10986;DHT22;5546;48.714;8.738;2023-07-08T14:34:05;43.30;27.40
10986;DHT22;5546;48.714;8.738;2023-07-08T14:36:34;43.70;27.40
10986;DHT22;5546;48.714;8.738;2023-07-08T14:39:13;43.90;27.20
10986;DHT22;5546;48.714;8.738;2023-07-08T14:41:52;43.10;27.40
10986;DHT22;5546;48.714;8.738;2023-07-08T14:44:32;43.00;28.20
10986;DHT22;5546;48.714;8.738;2023-07-08T14:46:58;43.60;28.70
10986;DHT22;5546;48.714;8.738;2023-07-08T14:49:24;43.30;27.70
10986;DHT22;5546;48.714;8.738;2023-07-08T14:51:50;43.50;27.60
10986;DHT22;5546;48.714;8.738;2023-07-08T14:54:45;42.70;28.50
10986;DHT22;5546;48.714;8.738;2023-07-08T14:57:31;41.80;29.20
10986;DHT22;5546;48.714;8.738;2023-07-08T15:00:02;41.10;29.70
10986;DHT22;5546;48.714;8.738;2023-07-08T15:02:29;41.00;30.00
10986;DHT22;5546;48.714;8.738;2023-07-08T15:04:55;41.30;31.40
10986;DHT22;5546;48.714;8.738;2023-07-08T15:07:20;38.40;31.40
10986;DHT22;5546;48.714;8.738;2023-07-08T15:09:46;37.70;32.00
10986;DHT22;5546;48.714;8.738;2023-07-08T15:12:12;37.30;33.50
10986;DHT22;5546;48.714;8.738;2023-07-08T15:14:38;37.20;33.50
10986;DHT22;5546;48.714;8.738;2023-07-08T15:17:13;36.50;33.80
10986;DHT22;5546;48.714;8.738;2023-07-08T15:19:41;36.50;34.30
10986;DHT22;5546;48.714;8.738;2023-07-08T15:22:11;36.50;35.00
10986;DHT22;5546;48.714;8.738;2023-07-08T15:24:37;36.30;35.80
10986;DHT22;5546;48.714;8.738;2023-07-08T15:27:04;36.30;34.90
10986;DHT22;5546;48.714;8.738;2023-07-08T15:29:30;36.30;35.60
10986;DHT22;5546;48.714;8.738;2023-07-08T15:31:55;36.50;35.20
10986;DHT22;5546;48.714;8.738;2023-07-08T15:34:22;36.90;34.10
10986;DHT22;5546;48.714;8.738;2023-07-08T15:36:50;36.70;34.20
10986;DHT22;5546;48.714;8.738;2023-07-08T15:39:16;36.70;34.50
10986;DHT22;5546;48.714;8.738;2023-07-08T15:41:43;36.20;35.10
10986;DHT22;5546;48.714;8.738;2023-07-08T15:44:10;36.40;36.70
10986;DHT22;5546;48.714;8.738;2023-07-08T15:46:40;36.30;35.60
10986;DHT22;5546;48.714;8.738;2023-07-08T15:49:25;35.80;37.00
10986;DHT22;5546;48.714;8.738;2023-07-08T15:51:56;35.40;38.10
10986;DHT22;5546;48.714;8.738;2023-07-08T15:54:21;35.70;37.00
10986;DHT22;5546;48.714;8.738;2023-07-08T15:56:54;35.40;37.20
10986;DHT22;5546;48.714;8.738;2023-07-08T15:59:31;35.40;38.50
10986;DHT22;5546;48.714;8.738;2023-07-08T16:02:33;35.40;40.80
10986;DHT22;5546;48.714;8.738;2023-07-08T16:05:02;35.00;42.50
10986;DHT22;5546;48.714;8.738;2023-07-08T16:07:31;34.80;42.40
10986;DHT22;5546;48.714;8.738;2023-07-08T16:09:59;34.80;42.80
10986;DHT22;5546;48.714;8.738;2023-07-08T16:12:24;34.80;43.00
10986;DHT22;5546;48.714;8.738;2023-07-08T16:14:50;34.90;41.10
10986;DHT22;5546;48.714;8.738;2023-07-08T16:17:16;34.50;41.70
10986;DHT22;5546;48.714;8.738;2023-07-08T16:19:44;34.20;43.50
10986;DHT22;5546;48.714;8.738;2023-07-08T16:22:13;34.20;42.00
10986;DHT22;5546;48.714;8.738;2023-07-08T16:24:39;34.20;42.90
10986;DHT22;5546;48.714;8.738;2023-07-08T16:27:05;34.10;43.50
10986;DHT22;5546;48.714;8.738;2023-07-08T16:29:34;34.10;44.10
10986;DHT22;5546;48.714;8.738;2023-07-08T16:32:08;34.00;42.70
10986;DHT22;5546;48.714;8.738;2023-07-08T16:34:34;33.80;43.80
10986;DHT22;5546;48.714;8.738;2023-07-08T16:37:00;34.10;42.20
10986;DHT22;5546;48.714;8.738;2023-07-08T16:39:37;34.10;42.00
10986;DHT22;5546;48.714;8.738;2023-07-08T16:42:15;34.20;42.60
10986;DHT22;5546;48.714;8.738;2023-07-08T16:44:56;34.40;42.50
10986;DHT22;5546;48.714;8.738;2023-07-08T16:47:35;34.30;43.90
10986;DHT22;5546;48.714;8.738;2023-07-08T16:50:01;34.00;44.30
10986;DHT22;5546;48.714;8.738;2023-07-08T16:52:26;34.10;45.30
10986;DHT22;5546;48.714;8.738;2023-07-08T16:54:52;34.20;44.40
10986;DHT22;5546;48.714;8.738;2023-07-08T16:57:18;34.20;45.10
10986;DHT22;5546;48.714;8.738;2023-07-08T16:59:47;33.80;45.20
10986;DHT22;5546;48.714;8.738;2023-07-08T17:02:37;33.80;45.40
10986;DHT22;5546;48.714;8.738;2023-07-08T17:05:23;33.60;44.40
10986;DHT22;5546;48.714;8.738;2023-07-08T17:07:55;33.10;44.80
10986;DHT22;5546;48.714;8.738;2023-07-08T17:10:23;33.00;45.50
10986;DHT22;5546;48.714;8.738;2023-07-08T17:13:13;33.00;45.40
10986;DHT22;5546;48.714;8.738;2023-07-08T17:15:42;32.90;46.20
10986;DHT22;5546;48.714;8.738;2023-07-08T17:18:19;33.00;46.50
10986;DHT22;5546;48.714;8.738;2023-07-08T17:20:48;33.00;45.50
10986;DHT22;5546;48.714;8.738;2023-07-08T17:23:16;32.50;47.10
10986;DHT22;5546;48.714;8.738;2023-07-08T17:25:45;32.50;47.10
10986;DHT22;5546;48.714;8.738;2023-07-08T17:28:14;32.70;47.70
10986;DHT22;5546;48.714;8.738;2023-07-08T17:33:32;32.70;46.30
10986;DHT22;5546;48.714;8.738;2023-07-08T17:35:59;32.40;46.50
10986;DHT22;5546;48.714;8.738;2023-07-08T17:38:46;32.40;47.10
10986;DHT22;5546;48.714;8.738;2023-07-08T17:41:14;32.40;46.10
10986;DHT22;5546;48.714;8.738;2023-07-08T17:43:40;31.90;48.00
10986;DHT22;5546;48.714;8.738;2023-07-08T17:46:10;31.50;49.60
10986;DHT22;5546;48.714;8.738;2023-07-08T17:48:38;31.20;49.20
10986;DHT22;5546;48.714;8.738;2023-07-08T17:51:05;31.00;50.90
10986;DHT22;5546;48.714;8.738;2023-07-08T17:53:31;30.80;51.20
10986;DHT22;5546;48.714;8.738;2023-07-08T17:58:23;30.90;51.60
10986;DHT22;5546;48.714;8.738;2023-07-08T18:00:49;30.60;51.50
10986;DHT22;5546;48.714;8.738;2023-07-08T18:03:14;30.70;52.10
10986;DHT22;5546;48.714;8.738;2023-07-08T18:10:35;30.20;52.40
10986;DHT22;5546;48.714;8.738;2023-07-08T18:13:02;30.20;53.10
10986;DHT22;5546;48.714;8.738;2023-07-08T18:15:34;30.20;53.10
10986;DHT22;5546;48.714;8.738;2023-07-08T18:18:02;30.40;54.00
10986;DHT22;5546;48.714;8.738;2023-07-08T18:22:54;30.10;54.90
10986;DHT22;5546;48.714;8.738;2023-07-08T18:25:22;29.70;55.40
10986;DHT22;5546;48.714;8.738;2023-07-08T18:27:50;29.70;55.90
10986;DHT22;5546;48.714;8.738;2023-07-08T18:30:18;30.10;54.50
10986;DHT22;5546;48.714;8.738;2023-07-08T18:32:46;30.20;54.40
10986;DHT22;5546;48.714;8.738;2023-07-08T18:37:42;30.40;54.70
10986;DHT22;5546;48.714;8.738;2023-07-08T18:40:12;30.50;55.40